Grand Saline, TX (75140)

4:15 AM CDT on July 04, 2015 (GMT -0500)
NE Van | | Change Station
CLOSE
Current Station
Personal Weather Station
Location: Van, TX
Elevation: 531 ft
Nearby Weather Stations

Elev 531 ft 32.53 °N, 95.63 °W | Updated 8 seconds ago

Partly Cloudy
Partly Cloudy
77.0 °F
Feels Like 78 °F
N
0.2
Wind Variable Wind from SSE
Gusts 2.5 mph

Today
High -- | Low -- °F
--% Chance of Precip.
Yesterday
High -- | Low -- °F
Precip. -- in
6:19 AM 8:34 PM
Waning Gibbous, 93% visible
Pressure 29.94 in
Visibility 10.0 miles
Clouds Few 1700 ft
Heat Index 78 °F
Dew Point 74 °F
Humidity 91%
Rainfall 0.00 in
Snow Depth Not available.
UV 0.0 out of 12
Pollen 3.60 out of 12
Air Quality Not available.
Flu Activity Not available.
METAR KTYR 040853Z AUTO 21009KT 10SM FEW017 26/23 A2996 RMK AO2 SLP136 T02610228 53001

More Conditions Fewer Conditions

Pressure 29.94 in
Visibility 10.0 miles
Clouds Few 1700 ft
Heat Index 78 °F
Dew Point 74 °F
Humidity 91%
Rainfall 0.00 in
Snow Depth Not available.
UV 0.0 out of 12
Pollen 3.60 out of 12
Air Quality Not available.
Flu Activity Not available.
METAR KTYR 040853Z AUTO 21009KT 10SM FEW017 26/23 A2996 RMK AO2 SLP136 T02610228 53001

More Conditions Fewer Conditions

10-Day Weather Forecast

×

Almanac

Astronomy

Jul. 04, 2015 Rise Set
Actual Time
Civil Twilight
Nautical Twilight
Astronomical Twilight
Moon
Length of Visible Light
Length of Day
Tomorrow will be .
, % of the Moon is Illuminated

Today's Extremes

State Highs State Lows

Community

WunderPhotos

Upload Photos

1,834,931 photos uploaded!

WunderBlogs® & News

Nearby

Air Quality

  Air Quality AQ Index Pollutant
Not available.

Snow Depth

Station Depth Elevation

Earthquake Activity

City Distance Mag. Time & Date
Minimum magnitude displayed is 2.5.

Coastal Water Temperatures

Place Temperature

Stations

Nearby Weather Stations

Station Location Temp. Windchill Dew Point Humidity Wind Precip. Elev Updated Type